Aeroporto :
LOGIN :

Iscrizione | Disclaimer

   EN    FR    IT 

 










Sommario :    VFR   VFR Marginale   IFR   IFR Intensivo   IFR Molto Intensivo
Visibilità : 
Base nubi : 
>= 8 km
>= 3000ft
5 / 8 km
1000 / 3000 ft
1500m / 5 km
500 / 1000 ft
800 / 1500m
200 / 500 ft
< 800m
< 200 ft
Simboli :   Temporali  Nebbia  Neve Forte  Precipitazioni Forti  Vento > 20 kt
SIGMETs :   Varie  Temporali  Ghiacco  Turbolenza  Onda orograficha  Ceneri Vulcaniche






- Altitudine del aeroporto : 510 ft


LJCE - Cerklje

ULTIMO METAR :
  • 242300Z AUTO 00000KT 5000 BR NCD M02/M03 Q1028

METARs OBSOLETI :
  • 242230Z AUTO 21001KT 6000 BR NCD M02/M03 Q1028
  • 242200Z AUTO 00000KT 7000 BR NCD M02/M03 Q1028
  • 242130Z AUTO VRB01KT 7000 BR NCD M02/M03 Q1028
  • 242100Z AUTO 00000KT 6000 BR NCD M02/M02 Q1028
  • 242030Z AUTO VRB01KT 7000 BR NCD M02/M02 Q1028

TAF TAF LJCE
Valido dal 24 a 21 ore il 25 a 06 ore UTC


242000Z 2421/2506 VRB02KT CAVOK
BECMG 2421/2423 3500 BR
PROB40 2500/2506 0250 FZFG VV002



MetMap, La meteo Aeronautica in un colpo d'occhio ! - Copyright ORBIFLY Dicembre 2007 - Disclaimer

ORBIFLY MET'MAP TEAM :

Programmazione e sviluppo : Alexandra Zaïnal
Concezione : Baudouin d'Aumeries
Aiuto per la programmazione : Marc-Olivier Méhu
Supporto tecnico e logistico : Manuel Goepfert
Aiuto per la traduzione : Arnaldo La Scala

Contatto : metmap@orbifly.com




FONTI E CREDITI :

   NOAA